sensor_id;sensor_type;location;lat;lon;timestamp;pressure;altitude;pressure_sealevel;temperature;humidity
81352;BME280;70809;52.184;13.422;2023-08-20T00:00:13;101441.81;;;23.43;72.96
81352;BME280;70809;52.184;13.422;2023-08-20T00:01:19;101446.59;;;23.66;72.06
81352;BME280;70809;52.184;13.422;2023-08-20T00:02:25;101433.16;;;23.94;72.67
81352;BME280;70809;52.184;13.422;2023-08-20T00:03:29;101432.53;;;24.14;72.88
81352;BME280;70809;52.184;13.422;2023-08-20T00:04:32;101442.22;;;24.21;71.83
81352;BME280;70809;52.184;13.422;2023-08-20T00:05:38;101435.00;;;24.21;70.24
81352;BME280;70809;52.184;13.422;2023-08-20T00:06:41;101431.16;;;24.28;69.42
81352;BME280;70809;52.184;13.422;2023-08-20T00:07:43;101437.00;;;24.44;70.20
81352;BME280;70809;52.184;13.422;2023-08-20T00:08:45;101428.53;;;24.55;70.64
81352;BME280;70809;52.184;13.422;2023-08-20T00:09:47;101437.31;;;24.61;70.19
81352;BME280;70809;52.184;13.422;2023-08-20T00:10:48;101429.97;;;24.65;69.92
81352;BME280;70809;52.184;13.422;2023-08-20T00:11:50;101432.69;;;24.65;70.48
81352;BME280;70809;52.184;13.422;2023-08-20T00:12:51;101433.75;;;24.61;70.87
81352;BME280;70809;52.184;13.422;2023-08-20T00:13:53;101437.28;;;24.63;70.36
81352;BME280;70809;52.184;13.422;2023-08-20T00:14:56;101430.97;;;24.62;70.64
81352;BME280;70809;52.184;13.422;2023-08-20T00:15:58;101440.03;;;24.61;70.39
81352;BME280;70809;52.184;13.422;2023-08-20T00:17:00;101447.47;;;24.55;70.84
81352;BME280;70809;52.184;13.422;2023-08-20T00:18:07;101442.69;;;24.35;70.88
81352;BME280;70809;52.184;13.422;2023-08-20T00:19:09;101443.53;;;24.07;70.58
81352;BME280;70809;52.184;13.422;2023-08-20T00:20:13;101450.16;;;23.97;70.77
81352;BME280;70809;52.184;13.422;2023-08-20T00:21:15;101441.50;;;24.14;70.67
81352;BME280;70809;52.184;13.422;2023-08-20T00:22:17;101445.56;;;24.29;71.34
81352;BME280;70809;52.184;13.422;2023-08-20T00:23:20;101446.22;;;24.37;71.91
81352;BME280;70809;52.184;13.422;2023-08-20T00:24:22;101438.81;;;24.44;71.36
81352;BME280;70809;52.184;13.422;2023-08-20T00:25:24;101436.94;;;24.46;71.41
81352;BME280;70809;52.184;13.422;2023-08-20T00:26:26;101441.47;;;24.45;71.73
81352;BME280;70809;52.184;13.422;2023-08-20T00:27:28;101437.00;;;24.44;71.75
81352;BME280;70809;52.184;13.422;2023-08-20T00:28:30;101441.47;;;24.45;71.60
81352;BME280;70809;52.184;13.422;2023-08-20T00:29:31;101447.00;;;24.41;71.83
81352;BME280;70809;52.184;13.422;2023-08-20T00:30:33;101444.53;;;24.33;72.03
81352;BME280;70809;52.184;13.422;2023-08-20T00:31:34;101443.66;;;24.32;71.64
81352;BME280;70809;52.184;13.422;2023-08-20T00:32:36;101448.13;;;24.33;71.39
81352;BME280;70809;52.184;13.422;2023-08-20T00:33:40;101445.47;;;24.32;71.76
81352;BME280;70809;52.184;13.422;2023-08-20T00:34:51;101450.97;;;24.29;72.41
81352;BME280;70809;52.184;13.422;2023-08-20T00:35:53;101451.97;;;24.25;72.23
81352;BME280;70809;52.184;13.422;2023-08-20T00:36:55;101455.75;;;24.19;72.20
81352;BME280;70809;52.184;13.422;2023-08-20T00:37:56;101454.09;;;24.15;72.15
81352;BME280;70809;52.184;13.422;2023-08-20T00:38:58;101455.19;;;24.09;71.07
81352;BME280;70809;52.184;13.422;2023-08-20T00:40:00;101458.66;;;24.13;71.13
81352;BME280;70809;52.184;13.422;2023-08-20T00:41:02;101457.88;;;24.09;71.26
81352;BME280;70809;52.184;13.422;2023-08-20T00:42:03;101464.66;;;23.64;72.44
81352;BME280;70809;52.184;13.422;2023-08-20T00:43:05;101468.16;;;23.33;74.21
81352;BME280;70809;52.184;13.422;2023-08-20T00:44:06;101479.28;;;23.21;74.61
81352;BME280;70809;52.184;13.422;2023-08-20T00:45:08;101473.09;;;23.17;74.22
81352;BME280;70809;52.184;13.422;2023-08-20T00:46:10;101467.25;;;23.34;73.59
81352;BME280;70809;52.184;13.422;2023-08-20T00:47:13;101470.22;;;23.56;72.52
81352;BME280;70809;52.184;13.422;2023-08-20T00:48:15;101462.66;;;23.70;72.48
81352;BME280;70809;52.184;13.422;2023-08-20T00:49:18;101464.16;;;23.80;71.81
81352;BME280;70809;52.184;13.422;2023-08-20T00:50:20;101457.41;;;23.95;71.44
81352;BME280;70809;52.184;13.422;2023-08-20T00:51:22;101461.69;;;24.02;71.78
81352;BME280;70809;52.184;13.422;2023-08-20T00:52:25;101458.00;;;24.05;72.06
81352;BME280;70809;52.184;13.422;2023-08-20T00:53:28;101460.84;;;24.00;70.91
81352;BME280;70809;52.184;13.422;2023-08-20T00:54:31;101470.88;;;23.66;71.88
81352;BME280;70809;52.184;13.422;2023-08-20T00:55:34;101482.69;;;23.29;73.27
81352;BME280;70809;52.184;13.422;2023-08-20T00:56:38;101478.78;;;23.05;74.16
81352;BME280;70809;52.184;13.422;2023-08-20T00:57:40;101472.69;;;22.98;74.10
81352;BME280;70809;52.184;13.422;2023-08-20T00:58:42;101482.53;;;23.01;74.07
81352;BME280;70809;52.184;13.422;2023-08-20T00:59:44;101477.63;;;23.15;73.83
81352;BME280;70809;52.184;13.422;2023-08-20T01:00:48;101481.38;;;23.10;74.05
81352;BME280;70809;52.184;13.422;2023-08-20T01:01:50;101485.22;;;22.99;74.37
81352;BME280;70809;52.184;13.422;2023-08-20T01:02:52;101481.53;;;23.03;74.24
81352;BME280;70809;52.184;13.422;2023-08-20T01:03:54;101483.66;;;22.91;75.11
81352;BME280;70809;52.184;13.422;2023-08-20T01:04:57;101483.41;;;23.01;74.57
81352;BME280;70809;52.184;13.422;2023-08-20T01:06:04;101493.47;;;22.95;74.93
81352;BME280;70809;52.184;13.422;2023-08-20T01:07:12;101490.88;;;22.90;74.88
81352;BME280;70809;52.184;13.422;2023-08-20T01:08:23;101491.53;;;23.00;74.87
81352;BME280;70809;52.184;13.422;2023-08-20T01:09:37;101497.66;;;23.07;74.48
81352;BME280;70809;52.184;13.422;2023-08-20T01:10:49;101495.06;;;23.36;73.74
81352;BME280;70809;52.184;13.422;2023-08-20T01:11:57;101498.06;;;23.56;73.45
81352;BME280;70809;52.184;13.422;2023-08-20T01:13:00;101496.09;;;23.65;73.87
81352;BME280;70809;52.184;13.422;2023-08-20T01:14:14;101493.13;;;23.74;73.67
81352;BME280;70809;52.184;13.422;2023-08-20T01:15:16;101489.53;;;23.73;73.13
81352;BME280;70809;52.184;13.422;2023-08-20T01:16:17;101492.28;;;23.72;72.98
81352;BME280;70809;52.184;13.422;2023-08-20T01:17:19;101486.00;;;23.71;72.78
81352;BME280;70809;52.184;13.422;2023-08-20T01:18:21;101496.75;;;23.73;72.93
81352;BME280;70809;52.184;13.422;2023-08-20T01:19:23;101495.91;;;23.71;73.45
81352;BME280;70809;52.184;13.422;2023-08-20T01:20:30;101501.31;;;23.71;73.27
81352;BME280;70809;52.184;13.422;2023-08-20T01:21:38;101498.69;;;23.68;73.56
81352;BME280;70809;52.184;13.422;2023-08-20T01:23:33;101497.84;;;23.66;73.43
81352;BME280;70809;52.184;13.422;2023-08-20T01:24:44;101504.94;;;23.70;73.27
81352;BME280;70809;52.184;13.422;2023-08-20T01:25:56;101497.81;;;23.67;72.87
81352;BME280;70809;52.184;13.422;2023-08-20T01:27:10;101493.44;;;23.62;73.45
81352;BME280;70809;52.184;13.422;2023-08-20T01:28:25;101500.03;;;23.51;73.77
81352;BME280;70809;52.184;13.422;2023-08-20T01:29:27;101495.06;;;23.36;74.40
81352;BME280;70809;52.184;13.422;2023-08-20T01:30:29;101501.56;;;23.27;75.09
81352;BME280;70809;52.184;13.422;2023-08-20T01:31:32;101503.88;;;23.09;75.42
81352;BME280;70809;52.184;13.422;2023-08-20T01:32:36;101497.72;;;23.03;75.54
81352;BME280;70809;52.184;13.422;2023-08-20T01:33:39;101505.34;;;23.20;75.51
81352;BME280;70809;52.184;13.422;2023-08-20T01:34:41;101502.44;;;23.29;74.67
81352;BME280;70809;52.184;13.422;2023-08-20T01:35:43;101508.59;;;23.33;75.01
81352;BME280;70809;52.184;13.422;2023-08-20T01:36:51;101500.34;;;23.07;75.64
81352;BME280;70809;52.184;13.422;2023-08-20T01:37:52;101507.38;;;23.12;75.57
81352;BME280;70809;52.184;13.422;2023-08-20T01:38:54;101512.69;;;23.15;75.62
81352;BME280;70809;52.184;13.422;2023-08-20T01:39:57;101509.97;;;23.15;75.81
81352;BME280;70809;52.184;13.422;2023-08-20T01:40:59;101509.66;;;23.27;75.15
81352;BME280;70809;52.184;13.422;2023-08-20T01:42:00;101514.16;;;23.28;75.36
81352;BME280;70809;52.184;13.422;2023-08-20T01:43:02;101512.25;;;23.32;75.06
81352;BME280;70809;52.184;13.422;2023-08-20T01:44:05;101507.50;;;23.42;74.75
81352;BME280;70809;52.184;13.422;2023-08-20T01:45:08;101514.44;;;23.50;74.65
81352;BME280;70809;52.184;13.422;2023-08-20T01:46:14;101514.69;;;23.41;75.14
81352;BME280;70809;52.184;13.422;2023-08-20T01:47:16;101513.75;;;23.42;74.84
81352;BME280;70809;52.184;13.422;2023-08-20T01:48:17;101509.38;;;23.38;74.70
81352;BME280;70809;52.184;13.422;2023-08-20T01:49:19;101510.69;;;23.22;75.80
81352;BME280;70809;52.184;13.422;2023-08-20T01:51:22;101515.97;;;23.26;75.27
81352;BME280;70809;52.184;13.422;2023-08-20T01:52:24;101519.66;;;23.22;75.72
81352;BME280;70809;52.184;13.422;2023-08-20T01:53:26;101518.06;;;23.15;76.13
81352;BME280;70809;52.184;13.422;2023-08-20T01:54:27;101519.06;;;23.13;76.22
81352;BME280;70809;52.184;13.422;2023-08-20T01:55:30;101516.47;;;23.08;76.28
81352;BME280;70809;52.184;13.422;2023-08-20T01:56:33;101527.09;;;22.77;77.76
81352;BME280;70809;52.184;13.422;2023-08-20T01:57:35;101530.94;;;22.67;78.29
81352;BME280;70809;52.184;13.422;2023-08-20T01:58:37;101533.13;;;22.49;79.29
81352;BME280;70809;52.184;13.422;2023-08-20T01:59:40;101532.91;;;22.59;78.96
81352;BME280;70809;52.184;13.422;2023-08-20T02:00:42;101534.47;;;22.69;78.42
81352;BME280;70809;52.184;13.422;2023-08-20T02:01:44;101526.44;;;22.67;78.80
81352;BME280;70809;52.184;13.422;2023-08-20T02:02:45;101534.25;;;22.78;78.36
81352;BME280;70809;52.184;13.422;2023-08-20T02:03:47;101530.84;;;22.71;78.68
81352;BME280;70809;52.184;13.422;2023-08-20T02:04:49;101528.56;;;22.92;77.87
81352;BME280;70809;52.184;13.422;2023-08-20T02:05:50;101527.31;;;23.07;77.53
81352;BME280;70809;52.184;13.422;2023-08-20T02:06:52;101527.75;;;23.22;76.60
81352;BME280;70809;52.184;13.422;2023-08-20T02:07:54;101533.19;;;23.21;76.77
81352;BME280;70809;52.184;13.422;2023-08-20T02:08:56;101531.97;;;23.34;76.23
81352;BME280;70809;52.184;13.422;2023-08-20T02:09:58;101538.00;;;23.44;75.67
81352;BME280;70809;52.184;13.422;2023-08-20T02:11:00;101535.88;;;23.55;74.99
81352;BME280;70809;52.184;13.422;2023-08-20T02:12:02;101535.13;;;23.50;75.40
81352;BME280;70809;52.184;13.422;2023-08-20T02:13:04;101540.38;;;23.22;76.68
81352;BME280;70809;52.184;13.422;2023-08-20T02:14:05;101534.03;;;23.24;76.57
81352;BME280;70809;52.184;13.422;2023-08-20T02:15:09;101545.59;;;23.28;76.67
81352;BME280;70809;52.184;13.422;2023-08-20T02:16:11;101534.75;;;23.31;76.48
81352;BME280;70809;52.184;13.422;2023-08-20T02:17:13;101540.97;;;23.33;75.83
81352;BME280;70809;52.184;13.422;2023-08-20T02:18:14;101538.91;;;23.43;75.67
81352;BME280;70809;52.184;13.422;2023-08-20T02:19:16;101541.38;;;23.52;75.36
81352;BME280;70809;52.184;13.422;2023-08-20T02:20:18;101540.44;;;23.53;75.66
81352;BME280;70809;52.184;13.422;2023-08-20T02:21:20;101542.88;;;23.29;76.72
81352;BME280;70809;52.184;13.422;2023-08-20T02:22:21;101540.38;;;23.22;77.36
81352;BME280;70809;52.184;13.422;2023-08-20T02:23:23;101539.03;;;23.38;76.61
81352;BME280;70809;52.184;13.422;2023-08-20T02:24:26;101541.41;;;23.50;75.72
81352;BME280;70809;52.184;13.422;2023-08-20T02:25:27;101542.59;;;23.40;76.30
81352;BME280;70809;52.184;13.422;2023-08-20T02:26:29;101545.19;;;23.43;76.01
81352;BME280;70809;52.184;13.422;2023-08-20T02:27:31;101545.03;;;23.49;75.88
81352;BME280;70809;52.184;13.422;2023-08-20T02:28:33;101543.47;;;23.05;78.01
81352;BME280;70809;52.184;13.422;2023-08-20T02:29:34;101549.53;;;23.15;77.63
81352;BME280;70809;52.184;13.422;2023-08-20T02:30:42;101544.88;;;23.21;77.64
81352;BME280;70809;52.184;13.422;2023-08-20T02:31:47;101543.66;;;23.33;76.98
81352;BME280;70809;52.184;13.422;2023-08-20T02:32:50;101546.13;;;23.42;76.43
81352;BME280;70809;52.184;13.422;2023-08-20T02:33:53;101542.78;;;23.32;76.72
81352;BME280;70809;52.184;13.422;2023-08-20T02:34:56;101538.19;;;23.36;76.74
81352;BME280;70809;52.184;13.422;2023-08-20T02:36:01;101547.41;;;23.27;77.03
81352;BME280;70809;52.184;13.422;2023-08-20T02:37:03;101545.53;;;22.95;78.76
81352;BME280;70809;52.184;13.422;2023-08-20T02:38:05;101546.69;;;22.84;79.16
81352;BME280;70809;52.184;13.422;2023-08-20T02:39:07;101551.69;;;22.62;80.11
81352;BME280;70809;52.184;13.422;2023-08-20T02:40:10;101557.34;;;22.51;80.18
81352;BME280;70809;52.184;13.422;2023-08-20T02:41:12;101546.38;;;22.59;80.26
81352;BME280;70809;52.184;13.422;2023-08-20T02:42:16;101546.91;;;22.74;79.73
81352;BME280;70809;52.184;13.422;2023-08-20T02:43:19;101549.59;;;22.74;79.69
81352;BME280;70809;52.184;13.422;2023-08-20T02:44:21;101545.72;;;22.86;79.37
81352;BME280;70809;52.184;13.422;2023-08-20T02:45:23;101550.34;;;22.81;79.31
81352;BME280;70809;52.184;13.422;2023-08-20T02:46:27;101542.56;;;22.69;79.74
81352;BME280;70809;52.184;13.422;2023-08-20T02:47:31;101548.75;;;22.72;80.03
81352;BME280;70809;52.184;13.422;2023-08-20T02:48:33;101553.47;;;22.63;80.09
81352;BME280;70809;52.184;13.422;2023-08-20T02:49:34;101548.91;;;22.65;80.34
81352;BME280;70809;52.184;13.422;2023-08-20T02:50:37;101543.31;;;22.74;80.00
81352;BME280;70809;52.184;13.422;2023-08-20T02:51:39;101544.03;;;22.82;79.26
81352;BME280;70809;52.184;13.422;2023-08-20T02:52:41;101542.78;;;22.58;80.35
81352;BME280;70809;52.184;13.422;2023-08-20T02:53:46;101550.78;;;22.63;80.13
81352;BME280;70809;52.184;13.422;2023-08-20T02:54:48;101557.22;;;22.56;80.69
81352;BME280;70809;52.184;13.422;2023-08-20T02:55:50;101550.78;;;22.63;80.68
81352;BME280;70809;52.184;13.422;2023-08-20T02:56:51;101557.22;;;22.56;80.68
81352;BME280;70809;52.184;13.422;2023-08-20T02:57:53;101554.50;;;22.57;80.59
81352;BME280;70809;52.184;13.422;2023-08-20T02:58:54;101556.44;;;22.50;80.89
81352;BME280;70809;52.184;13.422;2023-08-20T02:59:56;101566.66;;;22.35;81.54
81352;BME280;70809;52.184;13.422;2023-08-20T03:00:58;101557.03;;;22.63;80.55
81352;BME280;70809;52.184;13.422;2023-08-20T03:02:01;101557.00;;;22.66;80.29
81352;BME280;70809;52.184;13.422;2023-08-20T03:03:03;101562.06;;;22.40;81.28
81352;BME280;70809;52.184;13.422;2023-08-20T03:04:05;101556.38;;;22.53;80.99
81352;BME280;70809;52.184;13.422;2023-08-20T03:05:07;101569.53;;;22.67;80.14
81352;BME280;70809;52.184;13.422;2023-08-20T03:06:09;101570.28;;;22.74;80.05
81352;BME280;70809;52.184;13.422;2023-08-20T03:07:11;101575.34;;;22.47;80.84
81352;BME280;70809;52.184;13.422;2023-08-20T03:08:12;101574.59;;;22.41;81.54
81352;BME280;70809;52.184;13.422;2023-08-20T03:09:14;101580.09;;;22.36;81.53
81352;BME280;70809;52.184;13.422;2023-08-20T03:10:16;101578.03;;;22.47;80.91
81352;BME280;70809;52.184;13.422;2023-08-20T03:11:17;101582.69;;;22.41;81.20
81352;BME280;70809;52.184;13.422;2023-08-20T03:12:19;101578.03;;;22.47;81.39
81352;BME280;70809;52.184;13.422;2023-08-20T03:13:21;101580.69;;;22.50;81.16
81352;BME280;70809;52.184;13.422;2023-08-20T03:14:22;101573.53;;;22.48;80.98
81352;BME280;70809;52.184;13.422;2023-08-20T03:15:27;101584.31;;;22.49;81.37
81352;BME280;70809;52.184;13.422;2023-08-20T03:16:29;101581.81;;;22.40;81.67
81352;BME280;70809;52.184;13.422;2023-08-20T03:17:32;101587.59;;;22.22;82.71
81352;BME280;70809;52.184;13.422;2023-08-20T03:18:34;101585.59;;;22.32;82.19
81352;BME280;70809;52.184;13.422;2023-08-20T03:19:36;101588.06;;;22.41;81.89
81352;BME280;70809;52.184;13.422;2023-08-20T03:20:37;101589.19;;;22.32;82.31
81352;BME280;70809;52.184;13.422;2023-08-20T03:21:41;101592.13;;;22.18;82.87
81352;BME280;70809;52.184;13.422;2023-08-20T03:22:43;101593.22;;;22.10;83.26
81352;BME280;70809;52.184;13.422;2023-08-20T03:23:44;101584.28;;;22.06;83.79
81352;BME280;70809;52.184;13.422;2023-08-20T03:24:46;101593.25;;;22.07;83.70
81352;BME280;70809;52.184;13.422;2023-08-20T03:25:48;101591.44;;;22.09;83.56
81352;BME280;70809;52.184;13.422;2023-08-20T03:26:49;101587.75;;;22.14;83.20
81352;BME280;70809;52.184;13.422;2023-08-20T03:27:51;101585.91;;;22.16;83.78
81352;BME280;70809;52.184;13.422;2023-08-20T03:28:54;101586.69;;;22.21;83.57
81352;BME280;70809;52.184;13.422;2023-08-20T03:29:55;101585.56;;;22.33;82.78
81352;BME280;70809;52.184;13.422;2023-08-20T03:30:59;101590.81;;;22.39;82.59
81352;BME280;70809;52.184;13.422;2023-08-20T03:32:02;101586.41;;;22.35;83.00
81352;BME280;70809;52.184;13.422;2023-08-20T03:33:05;101584.22;;;22.11;83.61
81352;BME280;70809;52.184;13.422;2023-08-20T03:34:09;101590.53;;;22.10;83.33
81352;BME280;70809;52.184;13.422;2023-08-20T03:35:12;101585.38;;;21.97;84.17
81352;BME280;70809;52.184;13.422;2023-08-20T03:36:14;101583.69;;;21.92;84.60
81352;BME280;70809;52.184;13.422;2023-08-20T03:37:16;101596.38;;;21.85;84.47
81352;BME280;70809;52.184;13.422;2023-08-20T03:38:18;101595.38;;;21.91;84.67
81352;BME280;70809;52.184;13.422;2023-08-20T03:39:20;101595.19;;;22.00;84.69
81352;BME280;70809;52.184;13.422;2023-08-20T03:40:21;101596.00;;;22.04;84.44
81352;BME280;70809;52.184;13.422;2023-08-20T03:41:23;101589.13;;;21.89;84.89
81352;BME280;70809;52.184;13.422;2023-08-20T03:42:25;101596.19;;;21.94;84.50
81352;BME280;70809;52.184;13.422;2023-08-20T03:43:26;101593.22;;;22.10;84.35
81352;BME280;70809;52.184;13.422;2023-08-20T03:44:28;101588.72;;;22.10;83.89
81352;BME280;70809;52.184;13.422;2023-08-20T03:45:30;101592.34;;;22.06;83.59
81352;BME280;70809;52.184;13.422;2023-08-20T03:46:32;101587.19;;;21.97;84.75
81352;BME280;70809;52.184;13.422;2023-08-20T03:47:33;101595.84;;;22.14;83.85
81352;BME280;70809;52.184;13.422;2023-08-20T03:48:37;101597.53;;;22.18;83.73
81352;BME280;70809;52.184;13.422;2023-08-20T03:49:39;101593.38;;;22.00;84.11
81352;BME280;70809;52.184;13.422;2023-08-20T03:50:41;101597.09;;;21.93;84.79
81352;BME280;70809;52.184;13.422;2023-08-20T03:51:42;101600.63;;;21.95;84.45
81352;BME280;70809;52.184;13.422;2023-08-20T03:52:44;101597.19;;;21.89;84.77
81352;BME280;70809;52.184;13.422;2023-08-20T03:53:46;101592.84;;;21.82;85.09
81352;BME280;70809;52.184;13.422;2023-08-20T03:54:47;101599.97;;;21.84;85.37
81352;BME280;70809;52.184;13.422;2023-08-20T03:55:50;101597.50;;;21.72;85.83
81352;BME280;70809;52.184;13.422;2023-08-20T03:56:51;101607.44;;;21.68;85.89
81352;BME280;70809;52.184;13.422;2023-08-20T03:57:53;101599.38;;;21.68;86.03
81352;BME280;70809;52.184;13.422;2023-08-20T03:58:55;101598.44;;;21.71;86.33
81352;BME280;70809;52.184;13.422;2023-08-20T03:59:58;101589.34;;;21.77;85.90
81352;BME280;70809;52.184;13.422;2023-08-20T04:01:00;101602.66;;;21.84;85.20
81352;BME280;70809;52.184;13.422;2023-08-20T04:02:02;101602.81;;;21.77;85.83
81352;BME280;70809;52.184;13.422;2023-08-20T04:03:04;101609.03;;;21.79;85.51
81352;BME280;70809;52.184;13.422;2023-08-20T04:04:07;101608.03;;;21.84;85.40
81352;BME280;70809;52.184;13.422;2023-08-20T04:05:09;101611.16;;;21.63;86.07
81352;BME280;70809;52.184;13.422;2023-08-20T04:06:11;101603.88;;;21.68;86.72
81352;BME280;70809;52.184;13.422;2023-08-20T04:07:13;101610.56;;;21.93;85.72
81352;BME280;70809;52.184;13.422;2023-08-20T04:08:15;101606.91;;;21.97;84.98
81352;BME280;70809;52.184;13.422;2023-08-20T04:09:16;101611.22;;;22.05;84.21
81352;BME280;70809;52.184;13.422;2023-08-20T04:10:18;101612.28;;;21.97;85.04
81352;BME280;70809;52.184;13.422;2023-08-20T04:11:19;101619.03;;;21.72;86.13
81352;BME280;70809;52.184;13.422;2023-08-20T04:12:21;101614.72;;;21.63;86.73
81352;BME280;70809;52.184;13.422;2023-08-20T04:13:23;101615.69;;;21.59;86.47
81352;BME280;70809;52.184;13.422;2023-08-20T04:14:26;101612.13;;;21.56;86.63
81352;BME280;70809;52.184;13.422;2023-08-20T04:15:28;101613.53;;;21.78;86.10
81352;BME280;70809;52.184;13.422;2023-08-20T04:16:30;101610.72;;;21.84;85.34
81352;BME280;70809;52.184;13.422;2023-08-20T04:17:32;101609.09;;;21.76;85.94
81352;BME280;70809;52.184;13.422;2023-08-20T04:18:34;101620.84;;;21.71;86.20
81352;BME280;70809;52.184;13.422;2023-08-20T04:19:37;101612.84;;;21.68;86.34
81352;BME280;70809;52.184;13.422;2023-08-20T04:20:38;101610.03;;;21.73;86.27
81352;BME280;70809;52.184;13.422;2023-08-20T04:21:41;101612.44;;;21.88;85.95
81352;BME280;70809;52.184;13.422;2023-08-20T04:22:42;101613.53;;;21.80;85.68
81352;BME280;70809;52.184;13.422;2023-08-20T04:23:44;101620.66;;;21.81;85.92
81352;BME280;70809;52.184;13.422;2023-08-20T04:24:46;101620.88;;;21.70;86.50
81352;BME280;70809;52.184;13.422;2023-08-20T04:25:47;101625.66;;;21.53;87.14
81352;BME280;70809;52.184;13.422;2023-08-20T04:26:50;101623.06;;;21.46;87.62
81352;BME280;70809;52.184;13.422;2023-08-20T04:27:58;101618.22;;;21.68;86.78
81352;BME280;70809;52.184;13.422;2023-08-20T04:29:00;101612.84;;;21.68;86.73
81352;BME280;70809;52.184;13.422;2023-08-20T04:30:02;101616.38;;;21.70;86.72
81352;BME280;70809;52.184;13.422;2023-08-20T04:31:04;101617.28;;;21.69;86.52
81352;BME280;70809;52.184;13.422;2023-08-20T04:32:19;101618.66;;;21.90;85.64
81352;BME280;70809;52.184;13.422;2023-08-20T04:33:24;101623.31;;;21.82;86.10
81352;BME280;70809;52.184;13.422;2023-08-20T04:34:26;101619.22;;;21.63;86.95
81352;BME280;70809;52.184;13.422;2023-08-20T04:35:31;101626.13;;;21.76;86.70
81352;BME280;70809;52.184;13.422;2023-08-20T04:36:32;101629.16;;;21.58;87.58
81352;BME280;70809;52.184;13.422;2023-08-20T04:37:34;101628.16;;;21.62;86.92
81352;BME280;70809;52.184;13.422;2023-08-20T04:38:36;101624.69;;;21.57;87.30
81352;BME280;70809;52.184;13.422;2023-08-20T04:39:38;101626.28;;;21.68;87.18
81352;BME280;70809;52.184;13.422;2023-08-20T04:40:39;101624.75;;;21.54;87.75
81352;BME280;70809;52.184;13.422;2023-08-20T04:41:41;101632.66;;;21.61;87.38
81352;BME280;70809;52.184;13.422;2023-08-20T04:42:47;101630.25;;;21.44;88.36
81352;BME280;70809;52.184;13.422;2023-08-20T04:43:49;101634.03;;;21.34;88.88
81352;BME280;70809;52.184;13.422;2023-08-20T04:44:52;101632.88;;;21.49;88.73
81352;BME280;70809;52.184;13.422;2023-08-20T04:45:54;101627.50;;;21.49;87.46
81352;BME280;70809;52.184;13.422;2023-08-20T04:46:57;101631.19;;;21.43;88.77
81352;BME280;70809;52.184;13.422;2023-08-20T04:48:02;101623.81;;;21.55;88.11
81352;BME280;70809;52.184;13.422;2023-08-20T04:49:04;101622.00;;;21.57;88.00
81352;BME280;70809;52.184;13.422;2023-08-20T04:50:06;101620.78;;;21.73;87.66
81352;BME280;70809;52.184;13.422;2023-08-20T04:51:10;101619.03;;;21.73;87.17
81352;BME280;70809;52.184;13.422;2023-08-20T04:52:11;101628.13;;;21.65;87.62
81352;BME280;70809;52.184;13.422;2023-08-20T04:53:13;101618.22;;;21.67;87.51
81352;BME280;70809;52.184;13.422;2023-08-20T04:54:17;101629.94;;;21.64;87.11
81352;BME280;70809;52.184;13.422;2023-08-20T04:55:20;101626.16;;;21.73;87.70
81352;BME280;70809;52.184;13.422;2023-08-20T04:56:22;101634.00;;;21.87;87.17
81352;BME280;70809;52.184;13.422;2023-08-20T04:57:24;101643.00;;;21.84;87.11
81352;BME280;70809;52.184;13.422;2023-08-20T04:58:26;101633.41;;;21.71;87.46
81352;BME280;70809;52.184;13.422;2023-08-20T04:59:27;101641.72;;;21.56;87.86
81352;BME280;70809;52.184;13.422;2023-08-20T05:00:53;101647.09;;;21.56;88.38
81352;BME280;70809;52.184;13.422;2023-08-20T05:01:55;101646.22;;;21.57;88.36
81352;BME280;70809;52.184;13.422;2023-08-20T05:03:17;101646.19;;;21.58;88.49
81352;BME280;70809;52.184;13.422;2023-08-20T05:04:19;101638.91;;;21.63;88.23
81352;BME280;70809;52.184;13.422;2023-08-20T05:05:21;101648.41;;;21.83;87.54
81352;BME280;70809;52.184;13.422;2023-08-20T05:06:25;101640.50;;;21.75;87.65
81352;BME280;70809;52.184;13.422;2023-08-20T05:07:27;101637.75;;;21.78;87.50
81352;BME280;70809;52.184;13.422;2023-08-20T05:08:28;101640.50;;;21.75;87.70
81352;BME280;70809;52.184;13.422;2023-08-20T05:09:30;101638.88;;;21.65;87.88
81352;BME280;70809;52.184;13.422;2023-08-20T05:10:32;101636.22;;;21.62;87.68
81352;BME280;70809;52.184;13.422;2023-08-20T05:11:33;101638.00;;;21.64;88.03
81352;BME280;70809;52.184;13.422;2023-08-20T05:12:36;101635.25;;;21.67;88.03
81352;BME280;70809;52.184;13.422;2023-08-20T05:13:38;101637.00;;;21.70;87.67
81352;BME280;70809;52.184;13.422;2023-08-20T05:14:42;101635.19;;;21.70;87.56
81352;BME280;70809;52.184;13.422;2023-08-20T05:15:43;101637.03;;;21.67;87.26
81352;BME280;70809;52.184;13.422;2023-08-20T05:16:47;101631.69;;;21.65;88.11
81352;BME280;70809;52.184;13.422;2023-08-20T05:17:49;101633.69;;;21.54;88.14
81352;BME280;70809;52.184;13.422;2023-08-20T05:18:52;101637.22;;;21.58;88.70
81352;BME280;70809;52.184;13.422;2023-08-20T05:19:54;101624.69;;;21.57;88.41
81352;BME280;70809;52.184;13.422;2023-08-20T05:20:55;101637.31;;;21.53;88.67
81352;BME280;70809;52.184;13.422;2023-08-20T05:21:59;101632.78;;;21.57;89.00
81352;BME280;70809;52.184;13.422;2023-08-20T05:23:05;101634.44;;;21.64;88.60
81352;BME280;70809;52.184;13.422;2023-08-20T05:24:09;101638.25;;;21.51;89.08
81352;BME280;70809;52.184;13.422;2023-08-20T05:25:10;101640.88;;;21.54;89.02
81352;BME280;70809;52.184;13.422;2023-08-20T05:26:14;101638.03;;;21.61;88.79